x

Tanner Bank - 121nm West Of San Diego, Ca (46047) Wave Buoy

10:50 - Sun 4th Dec 2016 All times are PST. -8 hours from GMT.

  • Sig Wave height 10.8ft
  • Swell Direction
  • Peak Period 17s
  • Average Period 10s
  • Wind
    13mph, 18mph gusts
  • Sea Temp 62°f
  • Luft Temp 60°f
  • Sea Pressure 1018.5mb
  • Tanner Bank - 121nm West Of San Diego, Ca
  • Tanner Bank - 121nm West Of San Diego, Ca

More Historic Weather Station data

Upgrade to MSW Pro to gain access to the past 30 days of data for over 8000 Wavebouys and Weather Stations around the globe.

Join Pro

Comparision Forecast

View Surf forecast
   
So 12/04 10:50 11ft 17s 10s 13 18 mph 1018.5mb 62f 60f
8:50 8.5ft 17s 8s 16 20 mph 1018.7mb 62f 60f
7:50 9ft 19s 8s 13 16 mph 1018.5mb 62f 60f
6:50 9ft 17s 9s 13 18 mph 1018.4mb 62f 60f
5:50 9ft 19s 9s 13 18 mph 1017.9mb 62f 59f
4:50 9.5ft 19s 8s 16 20 mph 1017.7mb 62f 59f
3:50 9.5ft 19s 9s 16 18 mph 1017.6mb 62f 60f
2:50 9.5ft 19s 9s 18 20 mph 1017.5mb 62f 60f
1:50 8ft 19s 8s 18 22 mph 1018.1mb 62f 60f
12:50 9ft 19s 8s 18 20 mph 1018.4mb 62f 60f
Sa 12/03 11:50 9ft 19s 9s 16 18 mph 1018.5mb 62f 60f
10:50 8.5ft 19s 8s 18 20 mph 1018.5mb 62f 60f
9:50 8.5ft 19s 8s 18 22 mph 1018.5mb 62f 60f
8:50 8ft 19s 8s 18 20 mph 1018.7mb 62f 60f
7:50 8ft 19s 8s 16 20 mph 1018.6mb 62f 59f
6:50 7ft 19s 7s 13 18 mph 1018.8mb 62f 58f
5:50 8ft 19s 8s 13 16 mph 1018.7mb 62f 58f
4:50 8.5ft 19s 8s 16 18 mph 1018.4mb 62f 58f
3:50 8ft 11s 7s 16 20 mph 1018.7mb 62f 59f
2:50 8ft 21s 7s 16 18 mph 1018.9mb 62f 58f
1:50 8.5ft 11s 7s 13 16 mph 1019mb 62f 59f
12:50 9ft 21s 8s 11 13 mph 1019.5mb 62f 59f
11:50 9ft 11s 7s 9 13 mph 1020.9mb 62f 59f
10:50 9ft 11s 7s 13 18 mph 1021.4mb 62f 59f
9:50 8.5ft 12s 7s 16 20 mph 1021.5mb 62f 59f
8:50 8ft 12s 7s 18 22 mph 1021mb 62f 59f
7:50 8.5ft 11s 7s 16 22 mph 1020.5mb 62f 60f
6:50 7.5ft 10s 7s 25 31 mph 1019.7mb 62f 62f
5:50 8.5ft 13s 7s 25 31 mph 1019.4mb 62f 61f
4:50 8.5ft 11s 8s 16 20 mph 1019mb 62f 60f
3:50 8.5ft 11s 7s 13 18 mph 1018.8mb 62f 60f
2:50 10ft 12s 8s 13 18 mph 1018.9mb 62f 61f
1:50 9.5ft 12s 7s 13 16 mph 1018.6mb 62f 61f
12:50 9.5ft 13s 7s 13 16 mph 1018.8mb 62f 61f
Fr 12/02 11:50 10ft 11s 7s 18 22 mph 1018.7mb 62f 61f
10:50 10.5ft 12s 7s 22 29 mph 1018.4mb 62f 60f
9:50 9.5ft 13s 7s 22 27 mph 1018.1mb 62f 60f
8:50 10ft 13s 7s 22 27 mph 1018.2mb 62f 60f
7:50 10ft 13s 7s 20 25 mph 1017.8mb 62f 59f
6:50 10ft 13s 7s 20 22 mph 1017.3mb 62f 59f
5:50 10ft 11s 7s 20 22 mph 1017.3mb 62f 59f
4:50 10ft 12s 7s 20 27 mph 1016.9mb 62f 59f
3:50 10.5ft 13s 7s 22 27 mph 1016.4mb 62f 59f
2:50 10.5ft 14s 8s 20 27 mph 1016.1mb 62f 61f
1:50 11ft 14s 8s 18 22 mph 1015.9mb 62f 60f
12:50 10.5ft 14s 7s 20 25 mph 1016.2mb 62f 61f
11:50 11ft 13s 8s 18 22 mph 1016.3mb 62f 60f
10:50 12ft 14s 8s 18 22 mph 1016.8mb 62f 61f
9:50 11.5ft 13s 8s 20 25 mph 1016.8mb 62f 60f
8:50 10.5ft 11s 7s 20 25 mph 1016.3mb 62f 60f
7:50 11.5ft 11s 8s 22 27 mph 1015.8mb 62f 60f
6:50 10.5ft 15s 8s 20 27 mph 1015.4mb 62f 59f
5:50 11ft 11s 8s 22 27 mph 1014.9mb 62f 59f
4:50 12ft 11s 8s 20 25 mph 1014.3mb 62f 59f
3:50 10.5ft 11s 7s 20 25 mph 1014.2mb 62f 59f
2:50 12ft 12s 8s 20 25 mph 1014.1mb 62f 59f
1:50 11ft 12s 8s 20 25 mph 1014.3mb 62f 59f
12:50 12ft 12s 8s 20 25 mph 1014.2mb 62f 58f
Do 12/01 11:50 11.5ft 10s 8s 22 27 mph 1014.5mb 62f 58f
10:50 11.5ft 9s 7s 25 29 mph 1014.6mb 62f 58f
9:50 11.5ft 13s 7s 25 29 mph 1014.7mb 62f 59f
8:50 10ft 9s 7s 27 31 mph 1014.6mb 62f 59f
7:50 11ft 14s 7s 27 34 mph 1014.2mb 62f 59f
6:50 9.5ft 10s 7s 27 34 mph 1014.3mb 62f 59f
5:50 10ft 9s 7s 27 31 mph 1013.8mb 62f 59f
4:50 9ft 9s 6s 27 31 mph 1014mb 63f 59f
3:50 9ft 7s 6s 25 29 mph 1013.7mb 63f 58f
2:50 9.5ft 14s 7s 22 27 mph 1013.5mb 63f 58f
1:50 9ft 14s 7s 22 29 mph 1013.8mb 63f 59f
12:50 8.5ft 14s 7s 18 22 mph 1014.3mb 63f 59f
11:50 8ft 14s 7s 16 18 mph 1015.3mb 63f 59f
10:50 8ft 14s 7s 13 16 mph 1016.2mb 62f 58f
9:50 8ft 7s 7s 16 20 mph 1016.4mb 62f 59f
8:50 8.5ft 14s 7s 18 22 mph 1016.4mb 62f 58f
7:50 8ft 13s 6s 18 22 mph 1016.1mb 62f 58f
6:50 8.5ft 7s 7s 18 22 mph 1015.7mb 62f 58f
5:50 8ft 13s 7s 20 25 mph 1015.4mb 63f 58f
4:50 8ft 14s 7s 20 25 mph 1014.8mb 63f 58f
3:50 9ft 14s 7s 20 25 mph 1015.2mb 63f 59f
2:50 8ft 13s 7s 20 25 mph 1015.6mb 63f 59f
1:50 9ft 14s 7s 18 20 mph 1015.9mb 63f 59f
12:50 8ft 15s 7s 25 31 mph 1016.5mb 62f 58f
Mi 11/30 11:50 8ft 14s 7s 20 25 mph 1016.9mb 62f 59f
10:50 8.5ft 15s 8s 18 22 mph 1017mb 62f 58f
9:50 8ft 14s 8s 18 20 mph 1016.9mb 62f 59f
8:50 8ft 15s 8s 18 22 mph 1016.9mb 63f 59f